createdAt,value
2022-12-22T00:00:57.871Z,12.80
2022-12-22T00:03:27.054Z,13.20
2022-12-22T00:05:55.010Z,15.70
2022-12-22T00:08:25.913Z,14.40
2022-12-22T00:10:55.431Z,15.30
2022-12-22T00:13:23.010Z,15.10
2022-12-22T00:15:50.924Z,15.70
2022-12-22T00:18:18.974Z,14.10
2022-12-22T00:20:48.326Z,12.30
2022-12-22T00:23:16.622Z,15.90
2022-12-22T00:25:45.821Z,15.90
2022-12-22T00:28:15.129Z,11.60
2022-12-22T00:30:44.199Z,16.10
2022-12-22T00:33:15.079Z,15.70
2022-12-22T00:35:42.856Z,15.60
2022-12-22T00:38:17.106Z,16.80
2022-12-22T00:40:45.716Z,16.10
2022-12-22T00:43:14.549Z,16.90
2022-12-22T00:45:42.247Z,14.90
2022-12-22T00:48:25.130Z,19.10
2022-12-22T00:50:52.882Z,12.80
2022-12-22T00:53:21.052Z,15.90
2022-12-22T00:55:49.407Z,15.10
2022-12-22T00:58:20.298Z,14.70
2022-12-22T01:00:48.963Z,13.10
2022-12-22T01:03:17.457Z,15.30
2022-12-22T01:05:45.877Z,16.20
2022-12-22T01:08:14.189Z,13.10
2022-12-22T01:10:42.189Z,13.70
2022-12-22T01:13:14.955Z,14.50
2022-12-22T01:15:42.941Z,14.50
2022-12-22T01:18:11.140Z,13.70
2022-12-22T01:20:38.711Z,14.70
2022-12-22T01:23:10.430Z,15.30
2022-12-22T01:25:38.268Z,14.20
2022-12-22T01:28:06.205Z,13.70
2022-12-22T01:30:33.977Z,10.20
2022-12-22T01:33:01.675Z,10.60
2022-12-22T01:35:32.868Z,11.80
2022-12-22T01:38:00.476Z,11.80
2022-12-22T01:40:28.697Z,10.30
2022-12-22T01:42:56.457Z,11.90
2022-12-22T01:45:28.319Z,9.90
2022-12-22T01:47:56.753Z,12.20
2022-12-22T01:50:30.492Z,10.80
2022-12-22T01:52:58.766Z,12.00
2022-12-22T01:55:27.250Z,12.30
2022-12-22T01:57:55.572Z,10.20
2022-12-22T02:00:23.518Z,10.70
2022-12-22T02:02:51.284Z,12.20
2022-12-22T02:05:20.753Z,11.90
2022-12-22T02:07:54.019Z,11.00
2022-12-22T02:10:47.997Z,9.60
2022-12-22T02:13:15.762Z,6.30
2022-12-22T02:15:50.253Z,10.30
2022-12-22T02:18:32.110Z,10.20
2022-12-22T02:21:11.029Z,8.80
2022-12-22T02:24:21.448Z,9.90
2022-12-22T02:26:52.351Z,10.30
2022-12-22T02:29:26.209Z,10.00
2022-12-22T02:31:55.327Z,10.80
2022-12-22T02:34:23.490Z,10.90
2022-12-22T02:36:57.367Z,8.90
2022-12-22T02:39:48.993Z,11.90
2022-12-22T02:42:36.609Z,10.70
2022-12-22T02:45:31.965Z,10.60
2022-12-22T02:50:45.611Z,8.40
2022-12-22T02:53:16.024Z,9.00
2022-12-22T02:55:43.884Z,11.00
2022-12-22T02:58:13.345Z,7.20
2022-12-22T03:00:41.425Z,11.10
2022-12-22T03:03:09.743Z,11.20
2022-12-22T03:05:37.725Z,9.10
2022-12-22T03:08:08.461Z,11.60
2022-12-22T03:10:36.902Z,9.20
2022-12-22T03:13:05.001Z,10.10
2022-12-22T03:15:32.952Z,12.60
2022-12-22T03:18:03.285Z,9.50
2022-12-22T03:20:30.995Z,9.10
2022-12-22T03:23:07.581Z,11.50
2022-12-22T03:25:35.379Z,9.30
2022-12-22T03:28:05.170Z,10.90
2022-12-22T03:30:33.916Z,10.80
2022-12-22T03:33:01.790Z,12.00
2022-12-22T03:35:29.447Z,13.00
2022-12-22T03:37:57.249Z,13.00
2022-12-22T03:40:25.127Z,12.80
2022-12-22T03:42:53.004Z,10.40
2022-12-22T03:45:20.965Z,11.70
2022-12-22T03:47:48.811Z,13.60
2022-12-22T03:50:16.537Z,13.40
2022-12-22T03:52:44.122Z,15.20
2022-12-22T03:55:12.023Z,13.70
2022-12-22T03:57:40.103Z,11.50
2022-12-22T04:00:08.449Z,14.90
2022-12-22T04:02:36.397Z,14.50
2022-12-22T04:05:04.519Z,13.50
2022-12-22T04:07:32.102Z,14.90
2022-12-22T04:09:59.847Z,10.00
2022-12-22T04:12:27.365Z,11.70
2022-12-22T04:14:55.327Z,13.20
2022-12-22T04:17:23.168Z,14.40
2022-12-22T04:19:50.793Z,11.90
2022-12-22T04:22:18.599Z,13.70
2022-12-22T04:24:46.413Z,12.20
2022-12-22T04:27:14.334Z,12.30
2022-12-22T04:29:42.000Z,10.90
2022-12-22T04:32:09.729Z,12.00
2022-12-22T04:34:37.639Z,12.40
2022-12-22T04:37:14.933Z,14.20
2022-12-22T04:39:45.291Z,13.00
2022-12-22T04:42:13.304Z,11.50
2022-12-22T04:44:41.274Z,12.70
2022-12-22T04:47:09.458Z,13.40
2022-12-22T04:49:37.545Z,12.40
2022-12-22T04:52:05.343Z,12.30
2022-12-22T04:54:33.456Z,12.40
2022-12-22T04:57:01.065Z,12.10
2022-12-22T04:59:28.934Z,11.60
2022-12-22T05:01:56.692Z,12.80
2022-12-22T05:04:24.767Z,12.50
2022-12-22T05:06:52.490Z,13.00
2022-12-22T05:09:20.226Z,12.30
2022-12-22T05:11:48.129Z,12.90
2022-12-22T05:14:15.956Z,13.50
2022-12-22T05:16:43.643Z,9.40
2022-12-22T05:19:12.399Z,9.20
2022-12-22T05:21:40.365Z,11.20
2022-12-22T05:24:08.167Z,16.70
2022-12-22T05:26:36.589Z,13.50
2022-12-22T05:29:04.275Z,14.00
2022-12-22T05:31:32.217Z,13.60
2022-12-22T05:33:59.991Z,8.90
2022-12-22T05:36:27.729Z,10.00
2022-12-22T05:38:55.411Z,13.90
2022-12-22T05:41:23.231Z,11.50
2022-12-22T05:43:51.037Z,12.90
2022-12-22T05:46:19.042Z,12.40
2022-12-22T05:48:46.918Z,12.30
2022-12-22T05:51:14.972Z,13.80
2022-12-22T05:53:43.431Z,9.60
2022-12-22T05:56:11.489Z,13.60
2022-12-22T05:58:39.604Z,13.50
2022-12-22T06:01:07.704Z,12.50
2022-12-22T06:03:36.005Z,12.00
2022-12-22T06:06:04.125Z,13.30
2022-12-22T06:08:31.875Z,12.80
2022-12-22T06:10:59.968Z,13.70
2022-12-22T06:13:28.167Z,12.60
2022-12-22T06:15:56.125Z,14.00
2022-12-22T06:18:23.934Z,9.90
2022-12-22T06:20:52.574Z,15.40
2022-12-22T06:23:23.441Z,12.60
2022-12-22T06:25:59.411Z,15.10
2022-12-22T06:28:28.534Z,16.70
2022-12-22T06:30:56.591Z,17.10
2022-12-22T06:33:24.438Z,17.20
2022-12-22T06:35:58.120Z,18.20
2022-12-22T06:38:28.373Z,19.20
2022-12-22T06:40:56.637Z,21.50
2022-12-22T06:43:24.505Z,21.10
2022-12-22T06:45:53.072Z,22.00
2022-12-22T06:48:21.228Z,22.40
2022-12-22T06:50:49.409Z,25.00
2022-12-22T06:53:17.384Z,23.40
2022-12-22T06:55:45.624Z,22.80
2022-12-22T06:58:13.289Z,24.70
2022-12-22T07:00:41.052Z,25.50
2022-12-22T07:03:08.959Z,24.60
2022-12-22T07:05:36.753Z,24.70
2022-12-22T07:08:08.933Z,23.30
2022-12-22T07:10:37.320Z,22.60
2022-12-22T07:13:05.474Z,24.30
2022-12-22T07:15:33.301Z,21.90
2022-12-22T07:18:00.956Z,25.20
2022-12-22T07:20:28.539Z,25.20
2022-12-22T07:22:56.430Z,26.80
2022-12-22T07:25:24.401Z,24.90
2022-12-22T07:27:52.012Z,24.70
2022-12-22T07:30:19.725Z,27.20
2022-12-22T07:32:47.364Z,37.80
2022-12-22T07:35:14.957Z,37.70
2022-12-22T07:37:42.787Z,32.30
2022-12-22T07:40:10.994Z,28.40
2022-12-22T07:42:38.643Z,21.60
2022-12-22T07:45:06.905Z,21.80
2022-12-22T07:47:35.674Z,22.60
2022-12-22T07:50:04.585Z,23.20
2022-12-22T07:52:32.427Z,23.00
2022-12-22T07:55:00.092Z,23.80
2022-12-22T07:57:27.696Z,27.30
2022-12-22T07:59:55.445Z,24.70
2022-12-22T08:02:23.469Z,25.30
2022-12-22T08:04:51.378Z,27.20
2022-12-22T08:07:19.045Z,22.80
2022-12-22T08:09:47.000Z,25.50
2022-12-22T08:12:15.173Z,28.20
2022-12-22T08:14:42.806Z,28.80
2022-12-22T08:17:10.737Z,30.70
2022-12-22T08:19:38.605Z,30.90
2022-12-22T08:22:06.705Z,37.60
2022-12-22T08:24:34.367Z,21.60
2022-12-22T08:27:05.509Z,25.70
2022-12-22T08:29:40.547Z,25.30
2022-12-22T08:32:08.290Z,30.10
2022-12-22T08:34:36.087Z,27.70
2022-12-22T08:37:07.349Z,23.70
2022-12-22T08:39:39.451Z,23.60
2022-12-22T08:42:11.435Z,26.50
2022-12-22T08:44:39.287Z,30.80
2022-12-22T08:47:12.999Z,30.60
2022-12-22T08:49:44.186Z,31.60
2022-12-22T08:52:18.001Z,24.80
2022-12-22T08:54:46.954Z,29.60
2022-12-22T08:57:14.753Z,28.10
2022-12-22T08:59:42.366Z,29.90
2022-12-22T09:02:10.278Z,27.60
2022-12-22T09:04:38.066Z,29.50
2022-12-22T09:07:06.079Z,32.50
2022-12-22T09:09:34.852Z,24.60
2022-12-22T09:12:03.086Z,29.00
2022-12-22T09:14:31.488Z,28.90
2022-12-22T09:16:59.821Z,31.70
2022-12-22T09:19:27.605Z,34.80
2022-12-22T09:21:55.905Z,35.60
2022-12-22T09:24:23.691Z,36.50
2022-12-22T09:26:51.544Z,35.10
2022-12-22T09:29:19.223Z,30.60
2022-12-22T09:31:47.555Z,38.40
2022-12-22T09:34:18.038Z,32.90
2022-12-22T09:36:47.047Z,29.00
2022-12-22T09:39:15.449Z,28.20
2022-12-22T09:41:46.988Z,25.80
2022-12-22T09:44:23.768Z,25.90
2022-12-22T09:46:54.169Z,21.90
2022-12-22T09:51:54.325Z,28.30
2022-12-22T09:54:22.257Z,26.10
2022-12-22T09:56:50.122Z,26.10
2022-12-22T09:59:20.535Z,22.90
2022-12-22T10:04:38.924Z,20.30
2022-12-22T10:07:23.606Z,19.50
2022-12-22T10:09:52.138Z,23.60
2022-12-22T10:12:23.353Z,24.40
2022-12-22T10:14:53.823Z,27.60
2022-12-22T10:17:26.050Z,25.00
2022-12-22T10:20:06.970Z,24.50
2022-12-22T10:23:02.183Z,25.10
2022-12-22T10:28:43.383Z,23.40
2022-12-22T10:31:11.109Z,25.00
2022-12-22T10:33:45.905Z,23.60
2022-12-22T10:36:19.866Z,23.10
2022-12-22T10:39:19.423Z,24.30
2022-12-22T10:41:49.898Z,21.60
2022-12-22T10:44:17.477Z,22.70
2022-12-22T10:46:50.960Z,20.50
2022-12-22T10:49:25.090Z,21.50
2022-12-22T10:52:10.944Z,22.90
2022-12-22T10:54:38.662Z,23.00
2022-12-22T10:57:25.082Z,23.20
2022-12-22T10:59:54.499Z,24.80
2022-12-22T11:02:22.615Z,24.60
2022-12-22T11:04:52.585Z,23.10
2022-12-22T11:07:21.181Z,21.60
2022-12-22T11:09:48.833Z,23.80
2022-12-22T11:12:49.003Z,23.00
2022-12-22T11:15:38.246Z,24.60
2022-12-22T11:18:44.931Z,23.60
2022-12-22T11:21:37.345Z,21.60
2022-12-22T11:24:29.524Z,20.90
2022-12-22T11:27:44.068Z,17.90
2022-12-22T11:30:21.479Z,20.70
2022-12-22T11:33:04.016Z,14.80
2022-12-22T11:38:27.166Z,12.70
2022-12-22T11:41:04.646Z,11.90
2022-12-22T11:44:00.204Z,14.20
2022-12-22T11:46:44.887Z,18.00
2022-12-22T11:49:34.204Z,19.60
2022-12-22T11:52:33.567Z,21.50
2022-12-22T11:55:37.321Z,22.40
2022-12-22T11:58:05.429Z,22.20
2022-12-22T12:01:12.160Z,20.40
2022-12-22T12:03:45.738Z,20.70
2022-12-22T12:06:31.941Z,22.90
2022-12-22T12:09:25.497Z,28.20
2022-12-22T12:12:25.398Z,29.80
2022-12-22T12:15:04.871Z,28.30
2022-12-22T12:17:56.201Z,30.50
2022-12-22T12:20:52.401Z,33.30
2022-12-22T12:23:26.273Z,38.90
2022-12-22T12:26:11.045Z,30.80
2022-12-22T12:29:06.393Z,25.70
2022-12-22T12:31:43.061Z,28.00
2022-12-22T12:34:14.707Z,27.10
2022-12-22T12:37:00.726Z,26.30
2022-12-22T12:39:31.108Z,26.70
2022-12-22T12:42:25.790Z,28.30
2022-12-22T12:44:54.110Z,26.10
2022-12-22T12:47:36.724Z,27.60
2022-12-22T12:53:03.539Z,28.60
2022-12-22T12:55:40.541Z,30.40
2022-12-22T12:58:32.673Z,31.40
2022-12-22T13:01:01.904Z,33.30
2022-12-22T13:04:01.686Z,31.50
2022-12-22T13:06:53.330Z,25.30
2022-12-22T13:09:49.197Z,26.80
2022-12-22T13:12:49.173Z,27.50
2022-12-22T13:15:46.200Z,29.70
2022-12-22T13:18:25.812Z,30.30
2022-12-22T13:21:26.105Z,30.10
2022-12-22T13:24:23.713Z,32.80
2022-12-22T13:26:46.909Z,32.50
2022-12-22T13:29:36.161Z,34.30
2022-12-22T13:32:17.152Z,33.20
2022-12-22T13:35:29.639Z,30.70
2022-12-22T13:40:17.677Z,24.60
2022-12-22T13:42:53.463Z,25.20
2022-12-22T13:45:42.253Z,20.70
2022-12-22T13:48:16.615Z,18.90
2022-12-22T13:51:03.396Z,23.00
2022-12-22T13:54:12.361Z,17.00
2022-12-22T13:56:48.039Z,22.80
2022-12-22T13:59:33.179Z,20.70
2022-12-22T14:02:03.033Z,22.80
2022-12-22T14:04:31.568Z,27.50
2022-12-22T14:07:19.888Z,33.90
2022-12-22T14:09:55.883Z,31.80
2022-12-22T14:12:26.535Z,26.90
2022-12-22T14:14:56.547Z,28.30
2022-12-22T14:17:37.790Z,25.50
2022-12-22T14:20:26.659Z,26.00
2022-12-22T14:23:17.563Z,23.80
2022-12-22T14:25:47.034Z,22.50
2022-12-22T14:28:25.221Z,17.70
2022-12-22T14:31:04.760Z,15.80
2022-12-22T14:33:34.270Z,16.10
2022-12-22T14:36:21.512Z,17.70
2022-12-22T14:38:55.147Z,18.10
2022-12-22T14:41:32.446Z,20.40
2022-12-22T14:44:02.456Z,24.40
2022-12-22T14:46:36.811Z,19.90
2022-12-22T14:49:17.725Z,26.30
2022-12-22T14:52:06.157Z,26.30
2022-12-22T14:54:34.529Z,22.60
2022-12-22T14:57:15.694Z,26.70
2022-12-22T15:00:04.808Z,24.10
2022-12-22T15:02:40.248Z,27.60
2022-12-22T15:05:24.558Z,28.20
2022-12-22T15:08:10.339Z,29.80
2022-12-22T15:10:44.184Z,29.90
2022-12-22T15:13:21.646Z,27.80
2022-12-22T15:15:52.838Z,26.10
2022-12-22T15:18:25.807Z,20.60
2022-12-22T15:20:55.760Z,26.90
2022-12-22T15:23:24.161Z,26.80
2022-12-22T15:25:51.928Z,21.40
2022-12-22T15:28:19.634Z,24.10
2022-12-22T15:30:47.249Z,23.00
2022-12-22T15:33:18.543Z,25.60
2022-12-22T15:35:47.101Z,24.60
2022-12-22T15:38:17.771Z,25.70
2022-12-22T15:40:46.572Z,22.70
2022-12-22T15:43:53.543Z,21.40
2022-12-22T15:46:05.817Z,28.30
2022-12-22T15:48:36.308Z,28.90
2022-12-22T15:51:06.893Z,31.60
2022-12-22T15:53:35.418Z,29.90
2022-12-22T15:56:03.228Z,31.30
2022-12-22T15:58:36.214Z,24.70
2022-12-22T16:01:04.164Z,26.00
2022-12-22T16:03:32.229Z,22.40
2022-12-22T16:06:00.199Z,23.70
2022-12-22T16:08:33.127Z,25.40
2022-12-22T16:11:00.816Z,24.20
2022-12-22T16:13:29.022Z,26.00
2022-12-22T16:15:58.189Z,25.60
2022-12-22T16:18:26.322Z,20.20
2022-12-22T16:20:54.660Z,21.70
2022-12-22T16:23:25.904Z,21.80
2022-12-22T16:26:01.055Z,21.20
2022-12-22T16:28:30.321Z,19.40
2022-12-22T16:30:58.274Z,18.40
2022-12-22T16:33:26.304Z,17.20
2022-12-22T16:35:54.004Z,17.50
2022-12-22T16:38:21.748Z,20.60
2022-12-22T16:40:52.694Z,14.90
2022-12-22T16:46:23.854Z,18.10
2022-12-22T16:48:58.742Z,20.30
2022-12-22T16:51:33.267Z,19.10
2022-12-22T16:54:01.864Z,19.20
2022-12-22T16:56:31.384Z,20.40
2022-12-22T16:58:59.247Z,22.10
2022-12-22T17:01:37.159Z,20.80
2022-12-22T17:04:11.701Z,23.20
2022-12-22T17:06:40.858Z,19.70
2022-12-22T17:09:17.426Z,19.80
2022-12-22T17:11:46.970Z,18.80
2022-12-22T17:14:36.861Z,21.80
2022-12-22T17:17:05.069Z,20.80
2022-12-22T17:19:32.952Z,13.10
2022-12-22T17:22:01.092Z,19.50
2022-12-22T17:24:29.248Z,18.70
2022-12-22T17:27:04.097Z,17.00
2022-12-22T17:29:32.058Z,19.00
2022-12-22T17:32:00.923Z,17.80
2022-12-22T17:34:28.446Z,18.40
2022-12-22T17:36:57.283Z,16.60
2022-12-22T17:39:25.224Z,12.90
2022-12-22T17:41:57.095Z,23.60
2022-12-22T17:44:26.480Z,23.10
2022-12-22T17:46:54.351Z,28.90
2022-12-22T17:49:22.586Z,30.00
2022-12-22T17:51:50.934Z,30.30
2022-12-22T17:54:26.617Z,32.10
2022-12-22T17:57:00.338Z,27.10
2022-12-22T17:59:28.300Z,26.30
2022-12-22T18:01:56.078Z,22.80
2022-12-22T18:04:24.009Z,24.70
2022-12-22T18:06:51.694Z,23.00
2022-12-22T18:09:25.998Z,25.70
2022-12-22T18:11:53.869Z,23.60
2022-12-22T18:14:22.955Z,17.00
2022-12-22T18:16:50.840Z,11.80
2022-12-22T18:19:19.694Z,13.70
2022-12-22T18:21:47.568Z,17.10
2022-12-22T18:24:16.966Z,13.60
2022-12-22T18:26:44.864Z,15.60
2022-12-22T18:29:18.311Z,16.70
2022-12-22T18:31:46.415Z,14.30
2022-12-22T18:34:14.241Z,15.10
2022-12-22T18:36:41.916Z,11.50
2022-12-22T18:39:17.528Z,15.60
2022-12-22T18:41:46.313Z,14.80
2022-12-22T18:44:18.818Z,12.60
2022-12-22T18:46:46.925Z,14.10
2022-12-22T18:49:16.065Z,16.10
2022-12-22T18:51:44.516Z,14.30
2022-12-22T18:54:28.807Z,16.20
2022-12-22T18:56:56.547Z,18.20
2022-12-22T18:59:26.954Z,16.00
2022-12-22T19:04:25.862Z,13.00
2022-12-22T19:06:53.536Z,16.20
2022-12-22T19:09:21.326Z,18.90
2022-12-22T19:11:49.297Z,20.00
2022-12-22T19:14:20.561Z,19.90
2022-12-22T19:16:49.062Z,18.80
2022-12-22T19:19:19.628Z,20.80
2022-12-22T19:21:48.619Z,20.90
2022-12-22T19:24:16.706Z,21.30
2022-12-22T19:26:44.315Z,20.90
2022-12-22T19:29:14.264Z,23.50
2022-12-22T19:31:43.631Z,23.40
2022-12-22T19:34:18.304Z,22.40
2022-12-22T19:36:46.009Z,22.10
2022-12-22T19:39:13.835Z,22.60
2022-12-22T19:41:50.996Z,21.20
2022-12-22T19:44:26.728Z,23.70
2022-12-22T19:46:56.301Z,24.90
2022-12-22T19:49:26.364Z,25.40
2022-12-22T19:51:56.718Z,24.50
2022-12-22T19:56:56.100Z,18.70
2022-12-22T19:59:34.181Z,20.40
2022-12-22T20:02:21.144Z,17.80
2022-12-22T20:04:50.476Z,20.60
2022-12-22T20:07:20.963Z,18.60
2022-12-22T20:09:49.188Z,20.80
2022-12-22T20:12:33.865Z,17.70
2022-12-22T20:15:15.325Z,17.00
2022-12-22T20:17:43.385Z,20.80
2022-12-22T20:20:15.564Z,19.10
2022-12-22T20:22:49.571Z,16.80
2022-12-22T20:25:20.262Z,22.40
2022-12-22T20:27:48.978Z,23.00
2022-12-22T20:30:16.929Z,21.10
2022-12-22T20:32:44.864Z,21.20
2022-12-22T20:35:12.562Z,18.90
2022-12-22T20:37:40.872Z,17.70
2022-12-22T20:40:31.665Z,17.70
2022-12-22T20:42:59.468Z,16.60
2022-12-22T20:45:30.894Z,15.00
2022-12-22T20:47:59.747Z,18.50
2022-12-22T20:50:30.431Z,20.50
2022-12-22T20:52:58.154Z,18.90
2022-12-22T20:55:28.739Z,20.50
2022-12-22T20:57:56.480Z,18.10
2022-12-22T21:00:27.684Z,20.00
2022-12-22T21:02:55.830Z,17.00
2022-12-22T21:05:23.547Z,22.80
2022-12-22T21:07:51.125Z,25.20
2022-12-22T21:10:24.543Z,27.70
2022-12-22T21:12:52.797Z,24.60
2022-12-22T21:15:30.561Z,24.10
2022-12-22T21:17:59.198Z,23.30
2022-12-22T21:20:28.895Z,19.30
2022-12-22T21:22:56.600Z,25.00
2022-12-22T21:25:24.833Z,20.40
2022-12-22T21:27:52.868Z,24.50
2022-12-22T21:30:25.120Z,20.60
2022-12-22T21:32:53.612Z,23.80
2022-12-22T21:35:36.251Z,23.70
2022-12-22T21:38:04.368Z,23.20
2022-12-22T21:40:32.782Z,25.80
2022-12-22T21:43:00.361Z,22.60
2022-12-22T21:45:30.674Z,18.80
2022-12-22T21:50:29.156Z,19.50
2022-12-22T21:52:57.989Z,23.80
2022-12-22T21:55:29.853Z,20.80
2022-12-22T21:57:58.775Z,24.70
2022-12-22T22:00:27.748Z,21.40
2022-12-22T22:02:56.404Z,18.10
2022-12-22T22:05:29.144Z,22.00
2022-12-22T22:07:58.280Z,21.70
2022-12-22T22:10:30.191Z,19.10
2022-12-22T22:12:58.617Z,18.60
2022-12-22T22:15:27.930Z,22.10
2022-12-22T22:17:58.665Z,20.10
2022-12-22T22:20:32.329Z,17.90
2022-12-22T22:23:00.496Z,18.30
2022-12-22T22:25:28.114Z,17.40
2022-12-22T22:27:58.586Z,17.70
2022-12-22T22:30:27.335Z,16.90
2022-12-22T22:32:56.724Z,19.90
2022-12-22T22:35:26.344Z,17.40
2022-12-22T22:37:54.053Z,18.30
2022-12-22T22:40:23.228Z,14.00
2022-12-22T22:42:50.964Z,17.10
2022-12-22T22:45:18.963Z,12.80
2022-12-22T22:47:46.538Z,14.20
2022-12-22T22:50:14.159Z,12.50
2022-12-22T22:52:41.825Z,10.70
2022-12-22T22:55:09.650Z,13.30
2022-12-22T22:57:37.338Z,12.50
2022-12-22T23:00:06.596Z,9.80
2022-12-22T23:02:34.411Z,8.40
2022-12-22T23:05:02.323Z,8.40
2022-12-22T23:07:30.301Z,9.00
2022-12-22T23:09:58.116Z,7.70
2022-12-22T23:12:25.856Z,8.90
2022-12-22T23:14:53.511Z,6.50
2022-12-22T23:17:21.333Z,8.40
2022-12-22T23:19:49.469Z,8.50
2022-12-22T23:22:17.438Z,7.50
2022-12-22T23:24:45.198Z,8.20
2022-12-22T23:27:12.948Z,7.80
2022-12-22T23:29:40.741Z,8.20
2022-12-22T23:32:08.509Z,9.80
2022-12-22T23:34:36.403Z,8.40
2022-12-22T23:37:04.138Z,10.50
2022-12-22T23:39:31.867Z,9.70
2022-12-22T23:41:59.620Z,11.60
2022-12-22T23:44:27.536Z,10.80
2022-12-22T23:46:55.854Z,9.40
2022-12-22T23:49:23.963Z,10.80
2022-12-22T23:51:51.510Z,11.90
2022-12-22T23:54:19.206Z,10.00
2022-12-22T23:56:47.004Z,10.40
2022-12-22T23:59:14.990Z,9.70
